sensor_id;sensor_type;location;lat;lon;timestamp;temperature;humidity
64638;HTU21D;51049;45.046;38.950;2022-11-20T13:33:41;18.07;68.79
64638;HTU21D;51049;45.046;38.950;2022-11-20T13:36:57;18.13;68.69
64638;HTU21D;51049;45.046;38.950;2022-11-20T13:43:36;18.30;68.25
64638;HTU21D;51049;45.046;38.950;2022-11-20T13:46:53;18.29;68.16
64638;HTU21D;51049;45.046;38.950;2022-11-20T13:50:13;18.32;68.09
64638;HTU21D;51049;45.046;38.950;2022-11-20T13:56:28;18.29;67.84
64638;HTU21D;51049;45.046;38.950;2022-11-20T14:02:16;18.25;67.78
64638;HTU21D;51049;45.046;38.950;2022-11-20T14:05:02;18.26;67.67
64638;HTU21D;51049;45.046;38.950;2022-11-20T14:07:51;18.25;67.52
64638;HTU21D;51049;45.046;38.950;2022-11-20T14:10:29;18.24;67.46
64638;HTU21D;51049;45.046;38.950;2022-11-20T14:13:39;18.15;67.38
64638;HTU21D;51049;45.046;38.950;2022-11-20T14:16:18;18.03;67.42
64638;HTU21D;51049;45.046;38.950;2022-11-20T14:18:54;17.91;67.44
64638;HTU21D;51049;45.046;38.950;2022-11-20T14:22:10;17.80;67.54
64638;HTU21D;51049;45.046;38.950;2022-11-20T14:25:34;17.70;67.58
64638;HTU21D;51049;45.046;38.950;2022-11-20T14:28:25;17.62;67.55
64638;HTU21D;51049;45.046;38.950;2022-11-20T14:31:32;17.52;67.55
64638;HTU21D;51049;45.046;38.950;2022-11-20T14:34:02;17.47;67.58
64638;HTU21D;51049;45.046;38.950;2022-11-20T14:36:35;17.43;67.57
64638;HTU21D;51049;45.046;38.950;2022-11-20T14:39:25;17.39;67.54
64638;HTU21D;51049;45.046;38.950;2022-11-20T14:45:24;17.45;67.29
64638;HTU21D;51049;45.046;38.950;2022-11-20T14:48:30;17.48;67.27
64638;HTU21D;51049;45.046;38.950;2022-11-20T14:52:23;17.47;67.10
64638;HTU21D;51049;45.046;38.950;2022-11-20T15:01:34;17.52;66.96
64638;HTU21D;51049;45.046;38.950;2022-11-20T15:04:12;17.52;66.85
64638;HTU21D;51049;45.046;38.950;2022-11-20T15:06:57;17.50;66.85
64638;HTU21D;51049;45.046;38.950;2022-11-20T15:12:38;17.49;66.81
64638;HTU21D;51049;45.046;38.950;2022-11-20T15:15:27;17.47;66.74
64638;HTU21D;51049;45.046;38.950;2022-11-20T15:18:09;17.44;66.71
64638;HTU21D;51049;45.046;38.950;2022-11-20T15:20:41;17.40;66.72
64638;HTU21D;51049;45.046;38.950;2022-11-20T15:23:20;17.46;66.65
64638;HTU21D;51049;45.046;38.950;2022-11-20T15:25:47;17.53;66.50
64638;HTU21D;51049;45.046;38.950;2022-11-20T15:28:25;17.52;66.36
64638;HTU21D;51049;45.046;38.950;2022-11-20T15:30:55;17.53;66.33
64638;HTU21D;51049;45.046;38.950;2022-11-20T15:33:25;17.51;66.28
64638;HTU21D;51049;45.046;38.950;2022-11-20T15:36:04;17.53;66.31
64638;HTU21D;51049;45.046;38.950;2022-11-20T15:38:31;17.59;66.17
64638;HTU21D;51049;45.046;38.950;2022-11-20T15:41:00;17.62;66.10
64638;HTU21D;51049;45.046;38.950;2022-11-20T15:43:26;17.63;66.01
64638;HTU21D;51049;45.046;38.950;2022-11-20T15:46:13;17.68;65.85
64638;HTU21D;51049;45.046;38.950;2022-11-20T15:48:54;17.72;65.77
64638;HTU21D;51049;45.046;38.950;2022-11-20T15:51:41;17.64;65.70
64638;HTU21D;51049;45.046;38.950;2022-11-20T15:54:22;17.55;65.76
64638;HTU21D;51049;45.046;38.950;2022-11-20T15:57:09;17.49;65.88
64638;HTU21D;51049;45.046;38.950;2022-11-20T16:00:14;17.44;65.91
64638;HTU21D;51049;45.046;38.950;2022-11-20T16:02:43;17.43;65.95
64638;HTU21D;51049;45.046;38.950;2022-11-20T16:05:21;17.37;65.85
64638;HTU21D;51049;45.046;38.950;2022-11-20T16:07:53;17.35;65.91
64638;HTU21D;51049;45.046;38.950;2022-11-20T16:10:19;17.31;65.88
64638;HTU21D;51049;45.046;38.950;2022-11-20T16:16:35;17.22;65.85
64638;HTU21D;51049;45.046;38.950;2022-11-20T16:19:24;17.19;65.88
64638;HTU21D;51049;45.046;38.950;2022-11-20T16:21:56;17.20;65.83
64638;HTU21D;51049;45.046;38.950;2022-11-20T16:24:38;17.18;65.79
64638;HTU21D;51049;45.046;38.950;2022-11-20T16:27:13;17.16;65.80
64638;HTU21D;51049;45.046;38.950;2022-11-20T16:29:51;17.18;65.85
64638;HTU21D;51049;45.046;38.950;2022-11-20T16:35:10;17.23;65.64
64638;HTU21D;51049;45.046;38.950;2022-11-20T16:37:38;17.19;65.60
64638;HTU21D;51049;45.046;38.950;2022-11-20T16:40:16;17.14;65.56
64638;HTU21D;51049;45.046;38.950;2022-11-20T16:43:25;17.05;65.62
64638;HTU21D;51049;45.046;38.950;2022-11-20T16:45:56;16.98;65.64
64638;HTU21D;51049;45.046;38.950;2022-11-20T16:48:39;16.87;65.70
64638;HTU21D;51049;45.046;38.950;2022-11-20T16:51:08;16.75;65.79
64638;HTU21D;51049;45.046;38.950;2022-11-20T16:53:46;16.62;65.90
64638;HTU21D;51049;45.046;38.950;2022-11-20T16:56:33;16.48;66.04
64638;HTU21D;51049;45.046;38.950;2022-11-20T16:59:12;16.39;66.14
64638;HTU21D;51049;45.046;38.950;2022-11-20T17:01:44;16.31;66.23
64638;HTU21D;51049;45.046;38.950;2022-11-20T17:04:16;16.25;66.24
64638;HTU21D;51049;45.046;38.950;2022-11-20T17:07:05;16.18;66.27
64638;HTU21D;51049;45.046;38.950;2022-11-20T17:10:01;16.13;66.32
64638;HTU21D;51049;45.046;38.950;2022-11-20T17:15:40;16.03;66.30
64638;HTU21D;51049;45.046;38.950;2022-11-20T17:21:43;15.91;66.41
64638;HTU21D;51049;45.046;38.950;2022-11-20T17:24:40;15.91;66.45
64638;HTU21D;51049;45.046;38.950;2022-11-20T17:27:09;15.93;66.43
64638;HTU21D;51049;45.046;38.950;2022-11-20T17:29:56;15.97;66.37
64638;HTU21D;51049;45.046;38.950;2022-11-20T17:33:06;15.95;66.32
64638;HTU21D;51049;45.046;38.950;2022-11-20T17:35:41;15.93;66.36
64638;HTU21D;51049;45.046;38.950;2022-11-20T17:38:23;15.91;66.35
64638;HTU21D;51049;45.046;38.950;2022-11-20T17:41:14;15.89;66.37
64638;HTU21D;51049;45.046;38.950;2022-11-20T17:43:59;15.86;66.36
64638;HTU21D;51049;45.046;38.950;2022-11-20T17:46:43;15.77;66.42
64638;HTU21D;51049;45.046;38.950;2022-11-20T17:49:33;15.73;66.51
64638;HTU21D;51049;45.046;38.950;2022-11-20T17:52:46;15.69;66.53
64638;HTU21D;51049;45.046;38.950;2022-11-20T17:55:37;15.65;66.55
64638;HTU21D;51049;45.046;38.950;2022-11-20T17:58:33;15.58;66.60
64638;HTU21D;51049;45.046;38.950;2022-11-20T18:01:52;15.55;66.72
64638;HTU21D;51049;45.046;38.950;2022-11-20T18:04:48;15.62;66.66
64638;HTU21D;51049;45.046;38.950;2022-11-20T18:07:20;15.67;66.54
64638;HTU21D;51049;45.046;38.950;2022-11-20T18:09:54;15.68;66.49
64638;HTU21D;51049;45.046;38.950;2022-11-20T18:13:30;15.63;66.49
64638;HTU21D;51049;45.046;38.950;2022-11-20T18:17:06;15.69;66.63
64638;HTU21D;51049;45.046;38.950;2022-11-20T18:20:02;15.81;66.53
64638;HTU21D;51049;45.046;38.950;2022-11-20T18:22:54;16.00;66.40
64638;HTU21D;51049;45.046;38.950;2022-11-20T18:25:50;16.15;66.16
64638;HTU21D;51049;45.046;38.950;2022-11-20T18:29:00;16.22;66.01
64638;HTU21D;51049;45.046;38.950;2022-11-20T18:31:35;16.26;65.96
64638;HTU21D;51049;45.046;38.950;2022-11-20T18:34:09;16.32;65.90
64638;HTU21D;51049;45.046;38.950;2022-11-20T18:36:43;16.34;65.84
64638;HTU21D;51049;45.046;38.950;2022-11-20T18:39:20;16.36;65.82
64638;HTU21D;51049;45.046;38.950;2022-11-20T18:42:18;16.35;65.83
64638;HTU21D;51049;45.046;38.950;2022-11-20T18:45:33;16.33;65.91
64638;HTU21D;51049;45.046;38.950;2022-11-20T18:48:13;16.33;65.92
64638;HTU21D;51049;45.046;38.950;2022-11-20T18:50:48;16.34;65.88
64638;HTU21D;51049;45.046;38.950;2022-11-20T18:53:15;16.32;65.85
64638;HTU21D;51049;45.046;38.950;2022-11-20T18:55:46;16.28;65.95
64638;HTU21D;51049;45.046;38.950;2022-11-20T18:58:24;16.25;65.99
64638;HTU21D;51049;45.046;38.950;2022-11-20T19:01:16;16.25;66.00
64638;HTU21D;51049;45.046;38.950;2022-11-20T19:04:21;16.26;66.03
64638;HTU21D;51049;45.046;38.950;2022-11-20T19:07:14;16.26;66.01
64638;HTU21D;51049;45.046;38.950;2022-11-20T19:10:03;16.24;65.98
64638;HTU21D;51049;45.046;38.950;2022-11-20T19:13:08;16.17;66.03
64638;HTU21D;51049;45.046;38.950;2022-11-20T19:15:43;16.17;66.07
64638;HTU21D;51049;45.046;38.950;2022-11-20T19:18:36;16.13;66.07
64638;HTU21D;51049;45.046;38.950;2022-11-20T19:21:53;16.05;66.09
64638;HTU21D;51049;45.046;38.950;2022-11-20T19:24:33;15.98;66.14
64638;HTU21D;51049;45.046;38.950;2022-11-20T19:27:02;15.90;66.20
64638;HTU21D;51049;45.046;38.950;2022-11-20T19:29:32;15.85;66.26
64638;HTU21D;51049;45.046;38.950;2022-11-20T19:32:01;15.77;66.30
64638;HTU21D;51049;45.046;38.950;2022-11-20T19:34:58;15.68;66.40
64638;HTU21D;51049;45.046;38.950;2022-11-20T19:37:35;15.62;66.50
64638;HTU21D;51049;45.046;38.950;2022-11-20T19:40:01;15.65;66.51
64638;HTU21D;51049;45.046;38.950;2022-11-20T19:42:37;15.66;66.42
64638;HTU21D;51049;45.046;38.950;2022-11-20T19:45:21;15.67;66.35
64638;HTU21D;51049;45.046;38.950;2022-11-20T19:48:32;15.63;66.35
64638;HTU21D;51049;45.046;38.950;2022-11-20T19:54:44;15.54;66.36
64638;HTU21D;51049;45.046;38.950;2022-11-20T19:57:15;15.47;66.44
64638;HTU21D;51049;45.046;38.950;2022-11-20T19:59:51;15.41;66.53
64638;HTU21D;51049;45.046;38.950;2022-11-20T20:02:30;15.39;66.52
64638;HTU21D;51049;45.046;38.950;2022-11-20T20:05:07;15.34;66.56
64638;HTU21D;51049;45.046;38.950;2022-11-20T20:07:48;15.30;66.60
64638;HTU21D;51049;45.046;38.950;2022-11-20T20:10:29;15.31;66.73
64638;HTU21D;51049;45.046;38.950;2022-11-20T20:12:55;15.42;66.75
64638;HTU21D;51049;45.046;38.950;2022-11-20T20:15:50;15.62;66.60
64638;HTU21D;51049;45.046;38.950;2022-11-20T20:18:35;15.86;66.34
64638;HTU21D;51049;45.046;38.950;2022-11-20T20:23:58;16.24;65.94
64638;HTU21D;51049;45.046;38.950;2022-11-20T20:26:30;16.40;65.74
64638;HTU21D;51049;45.046;38.950;2022-11-20T20:29:09;16.51;65.62
64638;HTU21D;51049;45.046;38.950;2022-11-20T20:31:42;16.63;65.54
64638;HTU21D;51049;45.046;38.950;2022-11-20T20:34:23;16.74;65.45
64638;HTU21D;51049;45.046;38.950;2022-11-20T20:37:24;16.79;65.36
64638;HTU21D;51049;45.046;38.950;2022-11-20T20:39:54;16.79;65.33
64638;HTU21D;51049;45.046;38.950;2022-11-20T20:42:34;16.76;65.32
64638;HTU21D;51049;45.046;38.950;2022-11-20T20:45:10;16.69;65.38
64638;HTU21D;51049;45.046;38.950;2022-11-20T20:47:40;16.61;65.46
64638;HTU21D;51049;45.046;38.950;2022-11-20T20:50:18;16.55;65.56
64638;HTU21D;51049;45.046;38.950;2022-11-20T20:52:48;16.48;65.58
64638;HTU21D;51049;45.046;38.950;2022-11-20T20:55:14;16.43;65.65
64638;HTU21D;51049;45.046;38.950;2022-11-20T20:57:50;16.39;65.72
64638;HTU21D;51049;45.046;38.950;2022-11-20T21:04:17;16.20;65.76
64638;HTU21D;51049;45.046;38.950;2022-11-20T21:06:57;16.13;65.85
64638;HTU21D;51049;45.046;38.950;2022-11-20T21:09:28;16.04;65.91
64638;HTU21D;51049;45.046;38.950;2022-11-20T21:16:00;16.03;65.99
64638;HTU21D;51049;45.046;38.950;2022-11-20T21:18:31;16.14;65.90
64638;HTU21D;51049;45.046;38.950;2022-11-20T21:21:06;16.29;65.77
64638;HTU21D;51049;45.046;38.950;2022-11-20T21:27:25;16.48;65.39
64638;HTU21D;51049;45.046;38.950;2022-11-20T21:34:42;16.33;65.40
64638;HTU21D;51049;45.046;38.950;2022-11-20T21:37:12;16.24;65.48
64638;HTU21D;51049;45.046;38.950;2022-11-20T21:39:55;16.11;65.58
64638;HTU21D;51049;45.046;38.950;2022-11-20T21:43:12;15.98;65.70
64638;HTU21D;51049;45.046;38.950;2022-11-20T21:45:58;15.86;65.87
64638;HTU21D;51049;45.046;38.950;2022-11-20T21:48:28;15.76;65.93
64638;HTU21D;51049;45.046;38.950;2022-11-20T21:51:01;15.70;65.98
64638;HTU21D;51049;45.046;38.950;2022-11-20T21:53:37;15.65;66.02
64638;HTU21D;51049;45.046;38.950;2022-11-20T21:56:10;15.66;66.07
64638;HTU21D;51049;45.046;38.950;2022-11-20T21:58:38;15.66;66.00
64638;HTU21D;51049;45.046;38.950;2022-11-20T22:01:17;15.62;65.94
64638;HTU21D;51049;45.046;38.950;2022-11-20T22:03:52;15.56;65.98
64638;HTU21D;51049;45.046;38.950;2022-11-20T22:06:32;15.48;66.00
64638;HTU21D;51049;45.046;38.950;2022-11-20T22:09:01;15.42;66.06
64638;HTU21D;51049;45.046;38.950;2022-11-20T22:11:33;15.32;66.10
64638;HTU21D;51049;45.046;38.950;2022-11-20T22:14:03;15.23;66.20
64638;HTU21D;51049;45.046;38.950;2022-11-20T22:16:51;15.13;66.28
64638;HTU21D;51049;45.046;38.950;2022-11-20T22:19:20;15.03;66.33
64638;HTU21D;51049;45.046;38.950;2022-11-20T22:21:47;14.94;66.43
64638;HTU21D;51049;45.046;38.950;2022-11-20T22:24:23;14.84;66.49
64638;HTU21D;51049;45.046;38.950;2022-11-20T22:27:05;14.73;66.57
64638;HTU21D;51049;45.046;38.950;2022-11-20T22:29:31;14.64;66.64
64638;HTU21D;51049;45.046;38.950;2022-11-20T22:32:04;14.54;66.73
64638;HTU21D;51049;45.046;38.950;2022-11-20T22:34:46;14.45;66.78
64638;HTU21D;51049;45.046;38.950;2022-11-20T22:37:20;14.36;66.82
64638;HTU21D;51049;45.046;38.950;2022-11-20T22:40:22;14.23;66.91
64638;HTU21D;51049;45.046;38.950;2022-11-20T22:42:52;14.14;66.97
64638;HTU21D;51049;45.046;38.950;2022-11-20T22:45:21;14.06;67.04
64638;HTU21D;51049;45.046;38.950;2022-11-20T22:51:49;13.86;67.12
64638;HTU21D;51049;45.046;38.950;2022-11-20T22:54:50;13.77;67.16
64638;HTU21D;51049;45.046;38.950;2022-11-20T23:00:50;13.63;67.27
64638;HTU21D;51049;45.046;38.950;2022-11-20T23:03:17;13.60;67.31
64638;HTU21D;51049;45.046;38.950;2022-11-20T23:05:49;13.54;67.34
64638;HTU21D;51049;45.046;38.950;2022-11-20T23:08:20;13.52;67.40
64638;HTU21D;51049;45.046;38.950;2022-11-20T23:11:02;13.55;67.44
64638;HTU21D;51049;45.046;38.950;2022-11-20T23:13:31;13.58;67.44
64638;HTU21D;51049;45.046;38.950;2022-11-20T23:20:01;13.65;67.37
64638;HTU21D;51049;45.046;38.950;2022-11-20T23:22:45;13.67;67.39
64638;HTU21D;51049;45.046;38.950;2022-11-20T23:25:42;13.71;67.36
64638;HTU21D;51049;45.046;38.950;2022-11-20T23:28:08;13.79;67.34
64638;HTU21D;51049;45.046;38.950;2022-11-20T23:34:31;14.09;67.10
64638;HTU21D;51049;45.046;38.950;2022-11-20T23:40:37;14.47;66.88
64638;HTU21D;51049;45.046;38.950;2022-11-20T23:43:04;14.71;66.77
64638;HTU21D;51049;45.046;38.950;2022-11-20T23:51:33;15.72;66.09
64638;HTU21D;51049;45.046;38.950;2022-11-20T23:54:08;16.02;65.94
64638;HTU21D;51049;45.046;38.950;2022-11-20T23:56:43;16.30;65.70
64638;HTU21D;51049;45.046;38.950;2022-11-20T23:59:31;16.57;65.51
